createdAt,value
2023-03-22T00:03:42.591Z,29.41
2023-03-22T00:07:42.724Z,29.40
2023-03-22T00:11:42.910Z,29.37
2023-03-22T00:15:43.055Z,29.41
2023-03-22T00:19:43.193Z,29.39
2023-03-22T00:23:43.775Z,29.38
2023-03-22T00:27:43.546Z,29.37
2023-03-22T00:31:43.699Z,29.34
2023-03-22T00:35:43.903Z,29.31
2023-03-22T00:39:45.356Z,29.37
2023-03-22T00:43:44.278Z,29.32
2023-03-22T00:47:44.448Z,29.34
2023-03-22T00:51:44.625Z,29.28
2023-03-22T00:55:44.853Z,29.28
2023-03-22T00:59:45.032Z,29.25
2023-03-22T01:03:45.275Z,29.28
2023-03-22T01:07:45.414Z,29.24
2023-03-22T01:11:45.593Z,29.21
2023-03-22T01:15:45.800Z,29.19
2023-03-22T01:19:46.340Z,29.19
2023-03-22T01:23:46.241Z,29.19
2023-03-22T01:27:46.410Z,29.18
2023-03-22T01:31:47.349Z,29.13
2023-03-22T01:35:46.846Z,29.16
2023-03-22T01:39:47.088Z,29.16
2023-03-22T01:43:47.274Z,29.13
2023-03-22T01:47:47.542Z,29.18
2023-03-22T01:51:47.668Z,29.16
2023-03-22T01:55:47.697Z,29.17
2023-03-22T01:59:47.617Z,29.16
2023-03-22T02:03:49.337Z,29.12
2023-03-22T02:07:47.869Z,29.14
2023-03-22T02:11:47.529Z,29.07
2023-03-22T02:15:47.798Z,29.12
2023-03-22T02:19:47.628Z,29.07
2023-03-22T02:23:47.612Z,29.06
2023-03-22T02:27:47.610Z,29.03
2023-03-22T02:31:47.495Z,29.07
2023-03-22T02:35:47.490Z,29.04
2023-03-22T02:39:47.491Z,29.06
2023-03-22T02:43:47.505Z,29.04
2023-03-22T02:47:47.473Z,29.03
2023-03-22T02:51:50.832Z,29.01
2023-03-22T02:55:47.838Z,28.97
2023-03-22T02:59:47.257Z,29.00
2023-03-22T03:03:47.225Z,28.97
2023-03-22T03:07:47.233Z,28.96
2023-03-22T03:11:47.210Z,28.97
2023-03-22T03:15:47.081Z,29.01
2023-03-22T03:19:47.270Z,28.98
2023-03-22T03:23:47.237Z,29.00
2023-03-22T03:27:47.202Z,28.99
2023-03-22T03:31:47.145Z,28.97
2023-03-22T03:35:47.374Z,28.90
2023-03-22T03:39:47.026Z,28.94
2023-03-22T03:43:46.991Z,28.92
2023-03-22T03:47:47.123Z,28.87
2023-03-22T03:51:46.934Z,28.88
2023-03-22T03:55:46.914Z,28.90
2023-03-22T03:59:47.082Z,28.91
2023-03-22T04:03:47.323Z,28.88
2023-03-22T04:07:47.322Z,28.84
2023-03-22T04:11:47.213Z,28.88
2023-03-22T04:15:47.236Z,28.85
2023-03-22T04:19:47.213Z,28.82
2023-03-22T04:23:47.125Z,28.84
2023-03-22T04:27:47.171Z,28.81
2023-03-22T04:31:47.067Z,28.79
2023-03-22T04:35:47.117Z,28.81
2023-03-22T04:39:46.974Z,28.81
2023-03-22T04:43:47.068Z,28.77
2023-03-22T04:47:47.394Z,28.79
2023-03-22T04:51:47.351Z,28.76
2023-03-22T04:55:47.602Z,28.77
2023-03-22T04:59:47.787Z,28.79
2023-03-22T05:03:48.030Z,28.78
2023-03-22T05:07:48.226Z,28.75
2023-03-22T05:11:48.384Z,28.74
2023-03-22T05:15:48.473Z,28.72
2023-03-22T05:19:48.471Z,28.70
2023-03-22T05:23:51.465Z,28.71
2023-03-22T05:27:48.611Z,28.72
2023-03-22T05:31:48.667Z,28.72
2023-03-22T05:35:48.469Z,28.65
2023-03-22T05:39:48.523Z,28.49
2023-03-22T05:43:48.397Z,28.34
2023-03-22T05:47:48.478Z,28.22
2023-03-22T05:51:48.387Z,28.14
2023-03-22T05:55:48.324Z,28.05
2023-03-22T05:59:48.289Z,27.95
2023-03-22T06:03:48.186Z,27.93
2023-03-22T06:07:48.525Z,27.90
2023-03-22T06:11:48.119Z,27.85
2023-03-22T06:15:48.218Z,27.79
2023-03-22T06:19:48.052Z,27.73
2023-03-22T06:23:48.691Z,27.65
2023-03-22T06:27:48.074Z,27.65
2023-03-22T06:31:48.104Z,27.60
2023-03-22T06:35:49.814Z,28.01
2023-03-22T06:39:48.642Z,28.61
2023-03-22T06:43:48.089Z,29.25
2023-03-22T06:47:48.087Z,29.91
2023-03-22T06:51:48.850Z,30.65
2023-03-22T06:55:49.078Z,31.19
2023-03-22T06:59:49.864Z,31.01
2023-03-22T07:03:49.098Z,31.12
2023-03-22T07:12:09.913Z,30.59
2023-03-22T07:16:09.407Z,30.46
2023-03-22T07:24:27.445Z,29.97
2023-03-22T07:28:27.578Z,29.71
2023-03-22T07:32:26.671Z,29.71
2023-03-22T07:36:26.714Z,29.47
2023-03-22T07:40:28.760Z,29.51
2023-03-22T07:44:28.210Z,29.64
2023-03-22T07:48:27.724Z,29.35
2023-03-22T07:52:27.630Z,28.87
2023-03-22T07:56:26.810Z,28.92
2023-03-22T08:00:29.556Z,28.96
2023-03-22T08:04:26.865Z,29.02
2023-03-22T08:08:27.444Z,29.13
2023-03-22T08:12:27.112Z,29.14
2023-03-22T08:16:26.929Z,29.05
2023-03-22T08:20:27.045Z,28.99
2023-03-22T08:24:26.718Z,29.00
2023-03-22T08:28:26.665Z,29.07
2023-03-22T08:32:30.050Z,29.64
2023-03-22T08:36:26.635Z,29.56
2023-03-22T08:40:26.701Z,29.71
2023-03-22T08:44:26.475Z,29.88
2023-03-22T08:48:26.473Z,30.04
2023-03-22T08:52:26.424Z,29.00
2023-03-22T08:56:26.563Z,28.25
2023-03-22T09:00:30.135Z,28.56
2023-03-22T09:04:28.122Z,28.35
2023-03-22T09:08:26.476Z,28.20
2023-03-22T09:12:26.594Z,28.37
2023-03-22T09:16:26.762Z,28.12
2023-03-22T09:20:26.848Z,28.09
2023-03-22T09:24:27.487Z,28.29
2023-03-22T09:37:06.711Z,28.29
2023-03-22T09:41:05.351Z,28.76
2023-03-22T09:49:24.258Z,30.09
2023-03-22T09:53:25.973Z,30.53
2023-03-22T09:57:37.411Z,30.68
2023-03-22T10:10:02.584Z,31.02
2023-03-22T10:14:02.398Z,31.37
2023-03-22T10:18:02.736Z,31.30
2023-03-22T10:22:02.337Z,31.66
2023-03-22T10:26:03.096Z,31.62
2023-03-22T10:30:04.101Z,32.10
2023-03-22T10:34:02.949Z,31.82
2023-03-22T10:38:04.027Z,30.08
2023-03-22T10:42:05.737Z,31.04
2023-03-22T10:46:02.641Z,30.69
2023-03-22T10:50:02.729Z,30.83
2023-03-22T10:54:05.591Z,31.02
2023-03-22T10:58:02.479Z,30.65
2023-03-22T11:02:03.610Z,30.98
2023-03-22T11:06:01.957Z,30.87
2023-03-22T11:10:01.959Z,30.69
2023-03-22T11:14:01.970Z,31.06
2023-03-22T11:18:03.681Z,31.28
2023-03-22T11:22:01.879Z,31.33
2023-03-22T11:26:03.679Z,31.22
2023-03-22T11:30:09.326Z,30.54
2023-03-22T11:34:01.874Z,29.55
2023-03-22T11:38:01.817Z,29.54
2023-03-22T11:42:01.940Z,29.53
2023-03-22T11:46:01.612Z,29.44
2023-03-22T11:50:03.060Z,29.38
2023-03-22T11:54:01.465Z,29.26
2023-03-22T11:58:01.443Z,29.21
2023-03-22T12:02:01.500Z,29.10
2023-03-22T12:06:01.435Z,29.06
2023-03-22T12:10:01.395Z,29.02
2023-03-22T12:14:01.322Z,28.94
2023-03-22T12:18:01.714Z,28.89
2023-03-22T12:22:01.442Z,28.85
2023-03-22T12:26:02.575Z,28.81
2023-03-22T12:30:01.195Z,28.77
2023-03-22T12:34:01.699Z,28.74
2023-03-22T12:38:03.715Z,28.70
2023-03-22T12:42:01.028Z,28.69
2023-03-22T12:46:00.967Z,28.69
2023-03-22T12:50:00.910Z,28.59
2023-03-22T12:54:00.910Z,28.61
2023-03-22T12:58:00.849Z,28.58
2023-03-22T13:02:00.898Z,28.61
2023-03-22T13:06:00.797Z,28.52
2023-03-22T13:10:00.751Z,28.51
2023-03-22T13:14:00.717Z,28.49
2023-03-22T13:18:00.715Z,28.50
2023-03-22T13:22:00.668Z,28.43
2023-03-22T13:26:00.612Z,28.48
2023-03-22T13:30:00.663Z,28.41
2023-03-22T13:34:00.820Z,28.41
2023-03-22T13:38:00.912Z,28.38
2023-03-22T13:42:01.052Z,28.41
2023-03-22T13:46:01.365Z,28.35
2023-03-22T13:50:01.374Z,28.43
2023-03-22T13:54:01.578Z,28.38
2023-03-22T13:58:01.683Z,28.44
2023-03-22T14:02:01.842Z,28.43
2023-03-22T14:06:02.081Z,28.40
2023-03-22T14:10:02.227Z,28.46
2023-03-22T14:14:02.338Z,28.45
2023-03-22T14:18:02.630Z,28.43
2023-03-22T14:47:04.477Z,28.47
2023-03-22T14:51:04.452Z,28.52
2023-03-22T14:55:04.372Z,28.47
2023-03-22T14:59:04.445Z,28.50
2023-03-22T15:03:05.215Z,28.51
2023-03-22T15:07:04.245Z,28.52
2023-03-22T15:11:04.236Z,28.57
2023-03-22T15:15:04.505Z,28.62
2023-03-22T15:19:04.496Z,28.57
2023-03-22T15:23:06.559Z,28.63
2023-03-22T15:27:04.539Z,28.67
2023-03-22T15:31:06.638Z,28.72
2023-03-22T15:35:04.475Z,28.68
2023-03-22T15:39:04.527Z,28.67
2023-03-22T15:43:04.509Z,28.70
2023-03-22T15:47:04.544Z,29.27
2023-03-22T15:51:04.714Z,28.79
2023-03-22T15:55:04.624Z,28.68
2023-03-22T15:59:04.758Z,28.62
2023-03-22T16:03:04.829Z,28.64
2023-03-22T16:07:04.919Z,28.53
2023-03-22T16:11:05.016Z,28.51
2023-03-22T16:15:05.183Z,28.48
2023-03-22T16:19:05.296Z,28.48
2023-03-22T16:23:05.374Z,28.51
2023-03-22T16:27:05.508Z,28.51
2023-03-22T16:31:05.938Z,28.45
2023-03-22T16:35:05.798Z,28.42
2023-03-22T16:39:06.057Z,28.35
2023-03-22T16:43:06.257Z,28.23
2023-03-22T16:47:06.393Z,28.20
2023-03-22T16:51:06.596Z,28.11
2023-03-22T16:55:06.775Z,28.04
2023-03-22T16:59:06.953Z,27.97
2023-03-22T17:03:07.227Z,27.91
2023-03-22T17:07:07.184Z,27.91
2023-03-22T17:11:08.171Z,27.75
2023-03-22T17:15:07.059Z,27.69
2023-03-22T17:19:07.032Z,27.66
2023-03-22T17:23:07.032Z,27.66
2023-03-22T17:27:06.975Z,27.67
2023-03-22T17:31:07.278Z,27.58
2023-03-22T17:35:06.866Z,27.64
2023-03-22T17:39:23.142Z,27.55
2023-03-22T17:43:07.840Z,27.50
2023-03-22T17:47:34.733Z,27.44
2023-03-22T17:51:07.786Z,27.38
2023-03-22T17:59:06.711Z,27.32
2023-03-22T18:03:06.704Z,27.24
2023-03-22T18:07:06.638Z,27.28
2023-03-22T18:11:06.682Z,27.21
2023-03-22T18:15:06.585Z,27.20
2023-03-22T18:19:06.559Z,27.18
2023-03-22T18:23:06.472Z,27.11
2023-03-22T18:27:11.215Z,27.14
2023-03-22T18:31:07.496Z,27.16
2023-03-22T18:35:06.388Z,27.09
2023-03-22T18:43:07.319Z,26.96
2023-03-22T18:47:07.253Z,26.85
2023-03-22T18:51:11.556Z,26.89
2023-03-22T18:55:21.709Z,26.80
2023-03-22T18:59:07.195Z,26.75
2023-03-22T19:07:06.265Z,26.73
2023-03-22T19:11:06.295Z,26.67
2023-03-22T19:19:07.006Z,26.68
2023-03-22T19:23:06.014Z,26.61
2023-03-22T19:31:06.911Z,26.45
2023-03-22T19:35:05.877Z,26.55
2023-03-22T19:39:11.495Z,26.48
2023-03-22T19:43:06.835Z,26.44
2023-03-22T19:47:05.842Z,26.35
2023-03-22T19:51:05.762Z,26.34
2023-03-22T19:55:05.783Z,26.29
2023-03-22T19:59:11.521Z,26.31
2023-03-22T20:03:06.848Z,26.22
2023-03-22T20:07:05.805Z,26.19
2023-03-22T20:11:06.751Z,26.17
2023-03-22T20:15:05.855Z,26.20
2023-03-22T20:19:05.978Z,26.17
2023-03-22T20:23:06.417Z,26.14
2023-03-22T20:27:06.442Z,26.09
2023-03-22T20:31:06.260Z,26.10
2023-03-22T20:35:06.332Z,26.13
2023-03-22T20:39:06.459Z,26.17
2023-03-22T20:43:06.579Z,26.23
2023-03-22T20:47:06.696Z,26.26
2023-03-22T20:51:06.823Z,26.24
2023-03-22T20:55:07.002Z,26.31
2023-03-22T20:59:07.177Z,26.34
2023-03-22T21:03:07.309Z,26.38
2023-03-22T21:07:07.431Z,26.36
2023-03-22T21:11:07.657Z,26.45
2023-03-22T21:15:07.782Z,26.46
2023-03-22T21:19:07.972Z,26.53
2023-03-22T21:23:08.193Z,26.49
2023-03-22T21:27:08.375Z,26.56
2023-03-22T21:31:08.646Z,26.52
2023-03-22T21:35:08.774Z,26.56
2023-03-22T21:39:08.979Z,26.59
2023-03-22T21:43:09.071Z,26.63
2023-03-22T21:47:09.341Z,26.64
2023-03-22T21:51:09.488Z,26.66
2023-03-22T21:55:09.696Z,26.63
2023-03-22T21:59:09.931Z,26.71
2023-03-22T22:03:10.141Z,26.68
2023-03-22T22:07:10.326Z,26.72
2023-03-22T22:11:10.562Z,26.73
2023-03-22T22:15:10.777Z,26.71
2023-03-22T22:19:10.969Z,26.77
2023-03-22T22:23:10.942Z,26.75
2023-03-22T22:27:10.908Z,26.78
2023-03-22T22:31:10.888Z,26.81
2023-03-22T22:35:10.854Z,26.82
2023-03-22T22:39:10.832Z,26.83
2023-03-22T22:43:10.800Z,26.90
2023-03-22T22:47:10.770Z,26.89
2023-03-22T22:51:11.359Z,26.90
2023-03-22T22:55:10.672Z,26.92
2023-03-22T22:59:11.799Z,26.92
2023-03-22T23:03:10.827Z,26.91
2023-03-22T23:07:10.732Z,26.94
2023-03-22T23:11:10.704Z,26.94
2023-03-22T23:15:15.288Z,26.93
2023-03-22T23:19:11.625Z,26.96
2023-03-22T23:23:10.608Z,26.94
2023-03-22T23:27:10.696Z,26.97
2023-03-22T23:31:10.858Z,27.00
2023-03-22T23:35:11.897Z,27.01
2023-03-22T23:39:11.222Z,27.01
2023-03-22T23:43:11.388Z,27.02
2023-03-22T23:47:11.548Z,27.00
2023-03-22T23:51:11.638Z,27.02
2023-03-22T23:55:11.713Z,27.05
2023-03-22T23:59:11.887Z,27.05
